TimeCST,TemperatureF,Dew PointF,Humidity,Sea Level PressureIn,VisibilityMPH,Wind Direction,Wind SpeedMPH,Gust SpeedMPH,PrecipitationIn,Events,Conditions,WindDirDegrees,DateUTC
12:56 AM,24.1,17.1,75,30.32,10.0,SW,8.1,-,N/A,,Overcast,230,2012-02-09 06:56:00
1:36 AM,21.2,15.8,80,30.24,10.0,SSW,5.8,-,N/A,,Scattered Clouds,200,2012-02-09 07:36:00
1:51 AM,21.2,15.8,80,30.24,10.0,SSW,4.6,-,N/A,,Mostly Cloudy,210,2012-02-09 07:51:00
1:56 AM,21.0,16.0,81,30.31,10.0,SSW,3.5,-,N/A,,Mostly Cloudy,200,2012-02-09 07:56:00
2:19 AM,19.4,15.8,86,30.23,10.0,SSW,4.6,-,N/A,,Partly Cloudy,200,2012-02-09 08:19:00
2:56 AM,19.9,15.1,81,30.29,10.0,Calm,Calm,-,N/A,,Clear,0,2012-02-09 08:56:00
3:56 AM,19.9,16.0,85,30.26,10.0,South,11.5,-,N/A,,Clear,190,2012-02-09 09:56:00
4:56 AM,19.9,16.0,85,30.25,10.0,SSW,10.4,-,N/A,,Clear,200,2012-02-09 10:56:00
5:56 AM,19.9,16.0,85,30.24,10.0,South,10.4,-,N/A,,Clear,190,2012-02-09 11:56:00
6:56 AM,19.9,16.0,85,30.23,9.0,SSW,8.1,-,N/A,,Clear,200,2012-02-09 12:56:00
7:20 AM,23.0,19.4,86,30.15,10.0,SSW,10.4,-,N/A,,Mostly Cloudy,210,2012-02-09 13:20:00
7:56 AM,25.0,19.9,81,30.22,10.0,SW,9.2,-,N/A,,Overcast,220,2012-02-09 13:56:00
8:06 AM,24.8,21.2,86,30.15,10.0,SW,10.4,-,N/A,,Overcast,230,2012-02-09 14:06:00
8:56 AM,27.0,21.9,81,30.21,9.0,WSW,11.5,-,N/A,,Overcast,240,2012-02-09 14:56:00
9:35 AM,26.6,23.0,86,30.13,8.0,WSW,12.7,-,N/A,,Overcast,250,2012-02-09 15:35:00
9:56 AM,27.0,21.9,81,30.19,8.0,WSW,13.8,-,N/A,,Overcast,240,2012-02-09 15:56:00
10:56 AM,28.0,24.1,85,30.16,9.0,SSW,11.5,-,N/A,,Overcast,210,2012-02-09 16:56:00
11:56 AM,28.0,23.0,81,30.14,9.0,SSW,11.5,-,N/A,,Overcast,200,2012-02-09 17:56:00
12:56 PM,28.9,23.0,78,30.10,9.0,SSW,13.8,-,N/A,,Overcast,210,2012-02-09 18:56:00
1:53 PM,30.2,24.8,80,30.02,10.0,SW,12.7,-,N/A,,Scattered Clouds,220,2012-02-09 19:53:00
1:56 PM,30.0,23.0,75,30.08,10.0,SW,15.0,-,N/A,,Partly Cloudy,220,2012-02-09 19:56:00
2:56 PM,32.0,24.1,73,30.06,10.0,SSW,13.8,-,N/A,,Clear,210,2012-02-09 20:56:00
3:56 PM,32.0,24.1,73,30.05,10.0,SSW,11.5,-,N/A,,Clear,210,2012-02-09 21:56:00
4:56 PM,30.0,23.0,75,30.06,10.0,SSW,9.2,-,N/A,,Clear,210,2012-02-09 22:56:00
5:56 PM,27.0,21.9,81,30.05,8.0,SSW,5.8,-,N/A,,Clear,200,2012-02-09 23:56:00
6:56 PM,25.0,21.0,85,30.05,8.0,SSW,4.6,-,N/A,,Clear,210,2012-02-10 00:56:00
7:56 PM,25.0,21.0,85,30.06,8.0,SW,3.5,-,N/A,,Clear,230,2012-02-10 01:56:00
8:56 PM,25.0,21.0,85,30.08,9.0,West,3.5,-,N/A,,Clear,280,2012-02-10 02:56:00
9:56 PM,30.9,21.9,69,30.11,10.0,NNW,16.1,21.9,N/A,,Clear,330,2012-02-10 03:56:00
10:56 PM,30.0,21.0,69,30.14,10.0,NNW,17.3,-,N/A,,Clear,330,2012-02-10 04:56:00
11:56 PM,28.9,19.9,69,30.15,10.0,NNW,17.3,25.3,N/A,,Overcast,340,2012-02-10 05:56:00